sensor_id;sensor_type;location;lat;lon;timestamp;P1;durP1;ratioP1;P2;durP2;ratioP2
41201;SDS011;26936;50.524;8.684;2022-09-09T00:00:55;4.07;;;0.93;;
41201;SDS011;26936;50.524;8.684;2022-09-09T00:03:40;3.40;;;0.95;;
41201;SDS011;26936;50.524;8.684;2022-09-09T00:09:04;5.20;;;1.20;;
41201;SDS011;26936;50.524;8.684;2022-09-09T00:11:40;3.53;;;0.90;;
41201;SDS011;26936;50.524;8.684;2022-09-09T00:14:34;3.53;;;1.00;;
41201;SDS011;26936;50.524;8.684;2022-09-09T00:22:54;4.43;;;1.13;;
41201;SDS011;26936;50.524;8.684;2022-09-09T00:25:40;4.63;;;1.10;;
41201;SDS011;26936;50.524;8.684;2022-09-09T00:28:22;3.67;;;1.20;;
41201;SDS011;26936;50.524;8.684;2022-09-09T00:30:50;4.50;;;1.00;;
41201;SDS011;26936;50.524;8.684;2022-09-09T00:33:19;6.18;;;1.60;;
41201;SDS011;26936;50.524;8.684;2022-09-09T00:35:48;3.15;;;1.30;;
41201;SDS011;26936;50.524;8.684;2022-09-09T00:38:36;2.05;;;1.20;;
41201;SDS011;26936;50.524;8.684;2022-09-09T00:41:09;3.63;;;1.30;;
41201;SDS011;26936;50.524;8.684;2022-09-09T00:43:37;3.88;;;1.40;;
41201;SDS011;26936;50.524;8.684;2022-09-09T00:51:46;2.90;;;1.30;;
41201;SDS011;26936;50.524;8.684;2022-09-09T00:57:10;4.00;;;1.50;;
41201;SDS011;26936;50.524;8.684;2022-09-09T00:59:48;1.70;;;1.23;;
41201;SDS011;26936;50.524;8.684;2022-09-09T01:02:37;10.00;;;1.67;;
41201;SDS011;26936;50.524;8.684;2022-09-09T01:05:12;5.75;;;1.40;;
41201;SDS011;26936;50.524;8.684;2022-09-09T01:07:44;6.13;;;1.45;;
41201;SDS011;26936;50.524;8.684;2022-09-09T01:13:16;4.07;;;1.33;;
41201;SDS011;26936;50.524;8.684;2022-09-09T01:15:47;2.05;;;1.20;;
41201;SDS011;26936;50.524;8.684;2022-09-09T01:18:15;4.25;;;1.38;;
41201;SDS011;26936;50.524;8.684;2022-09-09T01:21:32;6.28;;;1.50;;
41201;SDS011;26936;50.524;8.684;2022-09-09T01:26:37;4.00;;;1.30;;
41201;SDS011;26936;50.524;8.684;2022-09-09T01:29:09;2.15;;;1.20;;
41201;SDS011;26936;50.524;8.684;2022-09-09T01:31:41;4.78;;;1.25;;
41201;SDS011;26936;50.524;8.684;2022-09-09T01:34:17;4.47;;;1.08;;
41201;SDS011;26936;50.524;8.684;2022-09-09T01:39:17;3.15;;;1.30;;
41201;SDS011;26936;50.524;8.684;2022-09-09T01:41:42;4.50;;;1.52;;
41201;SDS011;26936;50.524;8.684;2022-09-09T01:44:08;5.70;;;1.30;;
41201;SDS011;26936;50.524;8.684;2022-09-09T01:46:34;4.18;;;1.38;;
41201;SDS011;26936;50.524;8.684;2022-09-09T01:49:00;3.53;;;1.20;;
41201;SDS011;26936;50.524;8.684;2022-09-09T01:51:28;3.92;;;1.27;;
41201;SDS011;26936;50.524;8.684;2022-09-09T01:53:54;4.10;;;0.85;;
41201;SDS011;26936;50.524;8.684;2022-09-09T01:56:40;4.93;;;1.38;;
41201;SDS011;26936;50.524;8.684;2022-09-09T01:59:22;3.47;;;0.80;;
41201;SDS011;26936;50.524;8.684;2022-09-09T02:02:10;3.78;;;0.98;;
41201;SDS011;26936;50.524;8.684;2022-09-09T02:04:41;3.38;;;1.15;;
41201;SDS011;26936;50.524;8.684;2022-09-09T02:10:11;4.35;;;0.80;;
41201;SDS011;26936;50.524;8.684;2022-09-09T02:12:45;3.58;;;0.80;;
41201;SDS011;26936;50.524;8.684;2022-09-09T02:15:22;2.92;;;0.80;;
41201;SDS011;26936;50.524;8.684;2022-09-09T02:17:53;4.03;;;1.00;;
41201;SDS011;26936;50.524;8.684;2022-09-09T02:20:23;2.25;;;1.00;;
41201;SDS011;26936;50.524;8.684;2022-09-09T02:22:51;3.00;;;1.10;;
41201;SDS011;26936;50.524;8.684;2022-09-09T02:25:19;3.45;;;1.15;;
41201;SDS011;26936;50.524;8.684;2022-09-09T02:27:47;3.95;;;1.20;;
41201;SDS011;26936;50.524;8.684;2022-09-09T02:30:15;4.05;;;1.40;;
41201;SDS011;26936;50.524;8.684;2022-09-09T02:32:41;5.13;;;1.33;;
41201;SDS011;26936;50.524;8.684;2022-09-09T02:35:18;5.15;;;1.30;;
41201;SDS011;26936;50.524;8.684;2022-09-09T02:37:46;2.05;;;0.90;;
41201;SDS011;26936;50.524;8.684;2022-09-09T02:40:12;5.95;;;1.40;;
41201;SDS011;26936;50.524;8.684;2022-09-09T02:42:40;6.03;;;1.55;;
41201;SDS011;26936;50.524;8.684;2022-09-09T02:45:07;5.32;;;1.33;;
41201;SDS011;26936;50.524;8.684;2022-09-09T02:48:21;4.43;;;1.60;;
41201;SDS011;26936;50.524;8.684;2022-09-09T02:50:43;3.17;;;1.10;;
41201;SDS011;26936;50.524;8.684;2022-09-09T02:53:20;3.47;;;1.15;;
41201;SDS011;26936;50.524;8.684;2022-09-09T02:55:51;2.78;;;1.08;;
41201;SDS011;26936;50.524;8.684;2022-09-09T02:58:31;3.45;;;1.17;;
41201;SDS011;26936;50.524;8.684;2022-09-09T03:00:56;4.00;;;1.20;;
41201;SDS011;26936;50.524;8.684;2022-09-09T03:03:22;3.30;;;1.20;;
41201;SDS011;26936;50.524;8.684;2022-09-09T03:05:48;5.28;;;1.30;;
41201;SDS011;26936;50.524;8.684;2022-09-09T03:08:14;2.72;;;1.20;;
41201;SDS011;26936;50.524;8.684;2022-09-09T03:10:40;3.85;;;1.05;;
41201;SDS011;26936;50.524;8.684;2022-09-09T03:13:05;4.37;;;1.40;;
41201;SDS011;26936;50.524;8.684;2022-09-09T03:15:33;3.90;;;1.20;;
41201;SDS011;26936;50.524;8.684;2022-09-09T03:17:59;3.22;;;1.13;;
41201;SDS011;26936;50.524;8.684;2022-09-09T03:20:25;4.63;;;1.20;;
41201;SDS011;26936;50.524;8.684;2022-09-09T03:22:51;3.05;;;1.20;;
41201;SDS011;26936;50.524;8.684;2022-09-09T03:25:20;5.70;;;1.27;;
41201;SDS011;26936;50.524;8.684;2022-09-09T03:27:45;3.78;;;1.30;;
41201;SDS011;26936;50.524;8.684;2022-09-09T03:30:11;5.03;;;1.42;;
41201;SDS011;26936;50.524;8.684;2022-09-09T03:32:36;3.95;;;1.50;;
41201;SDS011;26936;50.524;8.684;2022-09-09T03:35:02;4.03;;;1.30;;
41201;SDS011;26936;50.524;8.684;2022-09-09T03:37:28;2.95;;;1.20;;
41201;SDS011;26936;50.524;8.684;2022-09-09T03:39:53;3.30;;;1.58;;
41201;SDS011;26936;50.524;8.684;2022-09-09T03:42:21;5.57;;;1.20;;
41201;SDS011;26936;50.524;8.684;2022-09-09T03:44:47;4.17;;;1.20;;
41201;SDS011;26936;50.524;8.684;2022-09-09T03:47:15;2.70;;;1.40;;
41201;SDS011;26936;50.524;8.684;2022-09-09T03:49:42;8.68;;;1.55;;
41201;SDS011;26936;50.524;8.684;2022-09-09T03:52:08;5.35;;;1.50;;
41201;SDS011;26936;50.524;8.684;2022-09-09T03:54:33;6.20;;;1.73;;
41201;SDS011;26936;50.524;8.684;2022-09-09T03:56:59;3.17;;;1.60;;
41201;SDS011;26936;50.524;8.684;2022-09-09T03:59:24;3.70;;;1.40;;
41201;SDS011;26936;50.524;8.684;2022-09-09T04:01:50;9.48;;;2.28;;
41201;SDS011;26936;50.524;8.684;2022-09-09T04:04:16;4.93;;;1.92;;
41201;SDS011;26936;50.524;8.684;2022-09-09T04:06:41;5.70;;;1.55;;
41201;SDS011;26936;50.524;8.684;2022-09-09T04:09:06;3.25;;;1.70;;
41201;SDS011;26936;50.524;8.684;2022-09-09T04:11:31;4.37;;;1.67;;
41201;SDS011;26936;50.524;8.684;2022-09-09T04:13:57;4.97;;;1.40;;
41201;SDS011;26936;50.524;8.684;2022-09-09T04:16:22;5.60;;;1.90;;
41201;SDS011;26936;50.524;8.684;2022-09-09T04:18:47;5.53;;;1.50;;
41201;SDS011;26936;50.524;8.684;2022-09-09T04:21:13;4.78;;;1.75;;
41201;SDS011;26936;50.524;8.684;2022-09-09T04:23:38;5.18;;;1.58;;
41201;SDS011;26936;50.524;8.684;2022-09-09T04:26:04;5.25;;;1.63;;
41201;SDS011;26936;50.524;8.684;2022-09-09T04:28:31;3.70;;;1.77;;
41201;SDS011;26936;50.524;8.684;2022-09-09T04:31:03;3.97;;;1.80;;
41201;SDS011;26936;50.524;8.684;2022-09-09T04:33:40;4.30;;;1.70;;
41201;SDS011;26936;50.524;8.684;2022-09-09T04:36:05;4.37;;;1.63;;
41201;SDS011;26936;50.524;8.684;2022-09-09T04:38:31;1.98;;;1.35;;
41201;SDS011;26936;50.524;8.684;2022-09-09T04:40:57;3.87;;;1.20;;
41201;SDS011;26936;50.524;8.684;2022-09-09T04:43:22;2.97;;;1.30;;
41201;SDS011;26936;50.524;8.684;2022-09-09T04:45:48;3.60;;;1.50;;
41201;SDS011;26936;50.524;8.684;2022-09-09T04:48:14;4.10;;;1.50;;
41201;SDS011;26936;50.524;8.684;2022-09-09T04:50:40;3.65;;;1.77;;
41201;SDS011;26936;50.524;8.684;2022-09-09T04:53:06;5.63;;;1.88;;
41201;SDS011;26936;50.524;8.684;2022-09-09T04:55:32;4.22;;;1.38;;
41201;SDS011;26936;50.524;8.684;2022-09-09T04:58:03;2.58;;;1.20;;
41201;SDS011;26936;50.524;8.684;2022-09-09T05:00:33;4.35;;;1.30;;
41201;SDS011;26936;50.524;8.684;2022-09-09T05:03:04;4.35;;;1.40;;
41201;SDS011;26936;50.524;8.684;2022-09-09T05:05:31;2.95;;;1.20;;
41201;SDS011;26936;50.524;8.684;2022-09-09T05:08:05;4.28;;;1.33;;
41201;SDS011;26936;50.524;8.684;2022-09-09T05:10:33;3.72;;;1.27;;
41201;SDS011;26936;50.524;8.684;2022-09-09T05:13:01;6.10;;;1.52;;
41201;SDS011;26936;50.524;8.684;2022-09-09T05:15:26;5.18;;;1.40;;
41201;SDS011;26936;50.524;8.684;2022-09-09T05:17:51;5.27;;;1.50;;
41201;SDS011;26936;50.524;8.684;2022-09-09T05:20:20;6.68;;;1.08;;
41201;SDS011;26936;50.524;8.684;2022-09-09T05:22:45;4.90;;;1.70;;
41201;SDS011;26936;50.524;8.684;2022-09-09T05:25:10;6.87;;;1.57;;
41201;SDS011;26936;50.524;8.684;2022-09-09T05:27:35;3.80;;;1.43;;
41201;SDS011;26936;50.524;8.684;2022-09-09T05:30:01;4.03;;;1.52;;
41201;SDS011;26936;50.524;8.684;2022-09-09T05:32:26;3.00;;;1.52;;
41201;SDS011;26936;50.524;8.684;2022-09-09T05:34:52;6.00;;;1.20;;
41201;SDS011;26936;50.524;8.684;2022-09-09T05:37:18;3.30;;;1.38;;
41201;SDS011;26936;50.524;8.684;2022-09-09T05:39:43;2.95;;;1.48;;
41201;SDS011;26936;50.524;8.684;2022-09-09T05:42:09;4.75;;;1.77;;
41201;SDS011;26936;50.524;8.684;2022-09-09T05:44:34;3.53;;;1.38;;
41201;SDS011;26936;50.524;8.684;2022-09-09T05:46:59;4.40;;;1.60;;
41201;SDS011;26936;50.524;8.684;2022-09-09T05:49:25;6.95;;;1.75;;
41201;SDS011;26936;50.524;8.684;2022-09-09T05:51:50;4.40;;;1.53;;
41201;SDS011;26936;50.524;8.684;2022-09-09T05:54:15;5.90;;;1.65;;
41201;SDS011;26936;50.524;8.684;2022-09-09T05:56:41;3.55;;;1.55;;
41201;SDS011;26936;50.524;8.684;2022-09-09T05:59:06;3.43;;;1.43;;
41201;SDS011;26936;50.524;8.684;2022-09-09T06:01:33;4.90;;;1.80;;
41201;SDS011;26936;50.524;8.684;2022-09-09T06:04:00;3.17;;;1.40;;
41201;SDS011;26936;50.524;8.684;2022-09-09T06:06:29;4.90;;;1.50;;
41201;SDS011;26936;50.524;8.684;2022-09-09T06:08:56;2.40;;;1.13;;
41201;SDS011;26936;50.524;8.684;2022-09-09T06:11:29;3.95;;;1.10;;
41201;SDS011;26936;50.524;8.684;2022-09-09T06:16:22;2.97;;;1.25;;
41201;SDS011;26936;50.524;8.684;2022-09-09T06:18:49;5.18;;;1.38;;
41201;SDS011;26936;50.524;8.684;2022-09-09T06:21:16;3.90;;;1.40;;
41201;SDS011;26936;50.524;8.684;2022-09-09T06:23:46;8.07;;;1.30;;
41201;SDS011;26936;50.524;8.684;2022-09-09T06:26:17;6.80;;;1.17;;
41201;SDS011;26936;50.524;8.684;2022-09-09T06:28:47;4.75;;;1.50;;
41201;SDS011;26936;50.524;8.684;2022-09-09T06:31:15;5.55;;;1.20;;
41201;SDS011;26936;50.524;8.684;2022-09-09T06:33:42;2.60;;;1.05;;
41201;SDS011;26936;50.524;8.684;2022-09-09T06:36:14;2.78;;;1.15;;
41201;SDS011;26936;50.524;8.684;2022-09-09T06:38:41;4.38;;;1.35;;
41201;SDS011;26936;50.524;8.684;2022-09-09T06:41:07;6.43;;;1.25;;
41201;SDS011;26936;50.524;8.684;2022-09-09T06:43:33;4.65;;;1.10;;
41201;SDS011;26936;50.524;8.684;2022-09-09T06:46:01;3.80;;;1.25;;
41201;SDS011;26936;50.524;8.684;2022-09-09T06:48:28;2.20;;;1.10;;
41201;SDS011;26936;50.524;8.684;2022-09-09T06:51:10;6.63;;;1.35;;
41201;SDS011;26936;50.524;8.684;2022-09-09T06:53:38;2.53;;;1.10;;
41201;SDS011;26936;50.524;8.684;2022-09-09T06:58:35;6.57;;;1.70;;
41201;SDS011;26936;50.524;8.684;2022-09-09T07:01:03;4.85;;;1.50;;
41201;SDS011;26936;50.524;8.684;2022-09-09T07:03:29;4.45;;;1.20;;
41201;SDS011;26936;50.524;8.684;2022-09-09T07:05:55;4.57;;;1.50;;
41201;SDS011;26936;50.524;8.684;2022-09-09T07:08:24;5.15;;;1.38;;
41201;SDS011;26936;50.524;8.684;2022-09-09T07:10:50;5.43;;;1.35;;
41201;SDS011;26936;50.524;8.684;2022-09-09T07:13:24;6.15;;;1.20;;
41201;SDS011;26936;50.524;8.684;2022-09-09T07:15:51;3.50;;;1.35;;
41201;SDS011;26936;50.524;8.684;2022-09-09T07:18:17;5.25;;;1.40;;
41201;SDS011;26936;50.524;8.684;2022-09-09T07:20:42;5.10;;;1.02;;
41201;SDS011;26936;50.524;8.684;2022-09-09T07:23:08;4.88;;;1.40;;
41201;SDS011;26936;50.524;8.684;2022-09-09T07:25:33;4.05;;;1.27;;
41201;SDS011;26936;50.524;8.684;2022-09-09T07:27:58;3.73;;;1.30;;
41201;SDS011;26936;50.524;8.684;2022-09-09T07:30:24;2.70;;;1.10;;
41201;SDS011;26936;50.524;8.684;2022-09-09T07:32:50;3.73;;;1.27;;
41201;SDS011;26936;50.524;8.684;2022-09-09T07:35:16;3.35;;;1.10;;
41201;SDS011;26936;50.524;8.684;2022-09-09T07:37:41;4.57;;;1.17;;
41201;SDS011;26936;50.524;8.684;2022-09-09T07:40:07;3.50;;;1.20;;
41201;SDS011;26936;50.524;8.684;2022-09-09T07:42:32;3.90;;;1.30;;
41201;SDS011;26936;50.524;8.684;2022-09-09T07:44:58;4.47;;;1.10;;
41201;SDS011;26936;50.524;8.684;2022-09-09T07:47:24;7.53;;;1.02;;
41201;SDS011;26936;50.524;8.684;2022-09-09T07:49:49;4.18;;;0.80;;
41201;SDS011;26936;50.524;8.684;2022-09-09T07:52:15;4.88;;;1.05;;
41201;SDS011;26936;50.524;8.684;2022-09-09T07:54:41;3.00;;;1.25;;
41201;SDS011;26936;50.524;8.684;2022-09-09T07:57:06;4.22;;;1.00;;
41201;SDS011;26936;50.524;8.684;2022-09-09T07:59:32;3.42;;;0.93;;
41201;SDS011;26936;50.524;8.684;2022-09-09T08:01:57;3.67;;;1.00;;
41201;SDS011;26936;50.524;8.684;2022-09-09T08:04:23;6.28;;;1.05;;
41201;SDS011;26936;50.524;8.684;2022-09-09T08:06:50;6.07;;;1.42;;
41201;SDS011;26936;50.524;8.684;2022-09-09T08:09:20;3.28;;;1.10;;
41201;SDS011;26936;50.524;8.684;2022-09-09T08:11:46;3.30;;;1.00;;
41201;SDS011;26936;50.524;8.684;2022-09-09T08:14:12;2.60;;;0.80;;
41201;SDS011;26936;50.524;8.684;2022-09-09T08:16:39;6.32;;;1.10;;
41201;SDS011;26936;50.524;8.684;2022-09-09T08:19:06;2.55;;;0.98;;
41201;SDS011;26936;50.524;8.684;2022-09-09T08:21:33;4.75;;;1.00;;
41201;SDS011;26936;50.524;8.684;2022-09-09T08:24:00;3.60;;;1.00;;
41201;SDS011;26936;50.524;8.684;2022-09-09T08:26:27;4.43;;;1.00;;
41201;SDS011;26936;50.524;8.684;2022-09-09T08:28:54;6.70;;;1.02;;
41201;SDS011;26936;50.524;8.684;2022-09-09T08:31:25;2.40;;;0.65;;
41201;SDS011;26936;50.524;8.684;2022-09-09T08:33:56;3.10;;;0.82;;
41201;SDS011;26936;50.524;8.684;2022-09-09T08:36:25;3.88;;;1.05;;
41201;SDS011;26936;50.524;8.684;2022-09-09T08:38:54;5.70;;;0.90;;
41201;SDS011;26936;50.524;8.684;2022-09-09T08:44:00;9.65;;;1.65;;
41201;SDS011;26936;50.524;8.684;2022-09-09T08:46:34;4.55;;;1.30;;
41201;SDS011;26936;50.524;8.684;2022-09-09T08:49:17;4.93;;;1.13;;
41201;SDS011;26936;50.524;8.684;2022-09-09T08:51:46;6.13;;;1.25;;
41201;SDS011;26936;50.524;8.684;2022-09-09T08:54:14;3.78;;;0.90;;
41201;SDS011;26936;50.524;8.684;2022-09-09T08:56:40;6.68;;;1.20;;
41201;SDS011;26936;50.524;8.684;2022-09-09T08:59:05;4.17;;;0.70;;
41201;SDS011;26936;50.524;8.684;2022-09-09T09:01:55;3.70;;;1.00;;
41201;SDS011;26936;50.524;8.684;2022-09-09T09:07:40;3.10;;;0.90;;
41201;SDS011;26936;50.524;8.684;2022-09-09T09:13:01;2.63;;;0.70;;
41201;SDS011;26936;50.524;8.684;2022-09-09T09:15:30;3.08;;;0.80;;
41201;SDS011;26936;50.524;8.684;2022-09-09T09:18:01;2.83;;;0.80;;
41201;SDS011;26936;50.524;8.684;2022-09-09T09:20:33;2.78;;;1.00;;
41201;SDS011;26936;50.524;8.684;2022-09-09T09:23:12;3.50;;;0.85;;
41201;SDS011;26936;50.524;8.684;2022-09-09T09:25:45;4.80;;;1.15;;
41201;SDS011;26936;50.524;8.684;2022-09-09T09:35:56;4.28;;;1.02;;
41201;SDS011;26936;50.524;8.684;2022-09-09T09:38:23;3.33;;;0.83;;
41201;SDS011;26936;50.524;8.684;2022-09-09T09:40:57;5.07;;;1.30;;
41201;SDS011;26936;50.524;8.684;2022-09-09T09:43:24;3.35;;;0.85;;
41201;SDS011;26936;50.524;8.684;2022-09-09T09:45:52;5.35;;;1.00;;
41201;SDS011;26936;50.524;8.684;2022-09-09T09:48:18;4.68;;;1.05;;
41201;SDS011;26936;50.524;8.684;2022-09-09T09:50:53;3.83;;;1.17;;
41201;SDS011;26936;50.524;8.684;2022-09-09T09:56:13;5.28;;;1.08;;
41201;SDS011;26936;50.524;8.684;2022-09-09T10:01:24;5.28;;;0.93;;
41201;SDS011;26936;50.524;8.684;2022-09-09T10:03:53;5.20;;;1.00;;
41201;SDS011;26936;50.524;8.684;2022-09-09T10:08:58;4.32;;;1.08;;
41201;SDS011;26936;50.524;8.684;2022-09-09T10:11:27;5.15;;;0.88;;
41201;SDS011;26936;50.524;8.684;2022-09-09T10:14:19;6.28;;;0.95;;
41201;SDS011;26936;50.524;8.684;2022-09-09T10:16:52;4.75;;;1.00;;
41201;SDS011;26936;50.524;8.684;2022-09-09T10:19:52;3.83;;;0.82;;
41201;SDS011;26936;50.524;8.684;2022-09-09T10:22:27;3.70;;;0.95;;
41201;SDS011;26936;50.524;8.684;2022-09-09T10:30:46;2.63;;;0.88;;
41201;SDS011;26936;50.524;8.684;2022-09-09T10:33:31;2.85;;;0.98;;
41201;SDS011;26936;50.524;8.684;2022-09-09T10:36:21;3.55;;;1.08;;
41201;SDS011;26936;50.524;8.684;2022-09-09T10:38:52;4.20;;;0.68;;
41201;SDS011;26936;50.524;8.684;2022-09-09T10:55:09;3.95;;;1.30;;
41201;SDS011;26936;50.524;8.684;2022-09-09T10:57:41;3.80;;;1.08;;
41201;SDS011;26936;50.524;8.684;2022-09-09T11:02:46;4.28;;;0.77;;
41201;SDS011;26936;50.524;8.684;2022-09-09T11:05:20;6.05;;;1.08;;
41201;SDS011;26936;50.524;8.684;2022-09-09T11:10:34;1.50;;;0.80;;
41201;SDS011;26936;50.524;8.684;2022-09-09T11:13:05;2.22;;;0.70;;
41201;SDS011;26936;50.524;8.684;2022-09-09T11:15:45;4.50;;;1.08;;
41201;SDS011;26936;50.524;8.684;2022-09-09T11:18:19;3.53;;;0.80;;
41201;SDS011;26936;50.524;8.684;2022-09-09T11:20:48;3.97;;;0.88;;
41201;SDS011;26936;50.524;8.684;2022-09-09T11:23:17;3.22;;;0.68;;
41201;SDS011;26936;50.524;8.684;2022-09-09T11:25:53;3.15;;;0.70;;
41201;SDS011;26936;50.524;8.684;2022-09-09T11:33:52;6.07;;;1.05;;
41201;SDS011;26936;50.524;8.684;2022-09-09T11:38:57;4.60;;;1.00;;
41201;SDS011;26936;50.524;8.684;2022-09-09T11:41:36;1.98;;;0.70;;
41201;SDS011;26936;50.524;8.684;2022-09-09T11:44:09;2.38;;;0.75;;
41201;SDS011;26936;50.524;8.684;2022-09-09T11:46:38;3.15;;;0.57;;
41201;SDS011;26936;50.524;8.684;2022-09-09T11:49:06;2.20;;;0.65;;
41201;SDS011;26936;50.524;8.684;2022-09-09T11:51:51;4.78;;;0.90;;
41201;SDS011;26936;50.524;8.684;2022-09-09T11:54:30;3.00;;;0.70;;
41201;SDS011;26936;50.524;8.684;2022-09-09T11:56:57;3.13;;;1.00;;
41201;SDS011;26936;50.524;8.684;2022-09-09T11:59:24;2.63;;;0.93;;
41201;SDS011;26936;50.524;8.684;2022-09-09T12:01:55;3.53;;;0.65;;
41201;SDS011;26936;50.524;8.684;2022-09-09T12:07:25;5.47;;;1.15;;
41201;SDS011;26936;50.524;8.684;2022-09-09T12:09:58;4.85;;;1.23;;
41201;SDS011;26936;50.524;8.684;2022-09-09T12:12:32;4.65;;;1.10;;
41201;SDS011;26936;50.524;8.684;2022-09-09T12:15:00;3.72;;;0.90;;
41201;SDS011;26936;50.524;8.684;2022-09-09T12:20:10;4.80;;;1.15;;
41201;SDS011;26936;50.524;8.684;2022-09-09T12:22:42;2.17;;;0.80;;
41201;SDS011;26936;50.524;8.684;2022-09-09T12:25:16;3.38;;;1.10;;
41201;SDS011;26936;50.524;8.684;2022-09-09T12:27:58;2.83;;;1.27;;
41201;SDS011;26936;50.524;8.684;2022-09-09T12:30:33;3.88;;;1.00;;
41201;SDS011;26936;50.524;8.684;2022-09-09T12:33:10;3.47;;;1.02;;
41201;SDS011;26936;50.524;8.684;2022-09-09T12:35:37;4.03;;;1.00;;
41201;SDS011;26936;50.524;8.684;2022-09-09T12:38:04;4.15;;;0.80;;
41201;SDS011;26936;50.524;8.684;2022-09-09T12:40:33;2.75;;;0.90;;
41201;SDS011;26936;50.524;8.684;2022-09-09T12:43:02;2.65;;;0.88;;
41201;SDS011;26936;50.524;8.684;2022-09-09T12:45:42;2.05;;;0.65;;
41201;SDS011;26936;50.524;8.684;2022-09-09T12:48:08;2.40;;;0.82;;
41201;SDS011;26936;50.524;8.684;2022-09-09T12:50:44;2.25;;;0.70;;
41201;SDS011;26936;50.524;8.684;2022-09-09T12:55:49;3.63;;;1.13;;
41201;SDS011;26936;50.524;8.684;2022-09-09T12:58:17;2.95;;;0.77;;
41201;SDS011;26936;50.524;8.684;2022-09-09T13:00:49;4.07;;;0.88;;
41201;SDS011;26936;50.524;8.684;2022-09-09T13:03:17;3.28;;;0.63;;
41201;SDS011;26936;50.524;8.684;2022-09-09T13:05:45;3.33;;;0.77;;
41201;SDS011;26936;50.524;8.684;2022-09-09T13:08:12;1.88;;;0.77;;
41201;SDS011;26936;50.524;8.684;2022-09-09T13:13:32;4.00;;;0.90;;
41201;SDS011;26936;50.524;8.684;2022-09-09T13:16:05;3.40;;;0.70;;
41201;SDS011;26936;50.524;8.684;2022-09-09T13:18:35;2.88;;;0.70;;
41201;SDS011;26936;50.524;8.684;2022-09-09T13:21:05;2.60;;;0.60;;
41201;SDS011;26936;50.524;8.684;2022-09-09T13:23:31;2.45;;;0.85;;
41201;SDS011;26936;50.524;8.684;2022-09-09T13:26:00;3.83;;;0.55;;
41201;SDS011;26936;50.524;8.684;2022-09-09T13:28:29;3.97;;;0.63;;
41201;SDS011;26936;50.524;8.684;2022-09-09T13:30:59;3.67;;;0.90;;
41201;SDS011;26936;50.524;8.684;2022-09-09T13:33:36;2.83;;;1.08;;
41201;SDS011;26936;50.524;8.684;2022-09-09T13:36:03;3.15;;;0.82;;
41201;SDS011;26936;50.524;8.684;2022-09-09T13:38:32;5.32;;;0.95;;
41201;SDS011;26936;50.524;8.684;2022-09-09T13:41:02;2.72;;;1.00;;
41201;SDS011;26936;50.524;8.684;2022-09-09T13:43:37;3.03;;;0.70;;
41201;SDS011;26936;50.524;8.684;2022-09-09T13:54:08;2.80;;;0.50;;
41201;SDS011;26936;50.524;8.684;2022-09-09T13:56:36;2.15;;;0.60;;
41201;SDS011;26936;50.524;8.684;2022-09-09T13:59:03;1.48;;;0.52;;
41201;SDS011;26936;50.524;8.684;2022-09-09T14:01:30;2.67;;;0.70;;
41201;SDS011;26936;50.524;8.684;2022-09-09T14:03:56;3.83;;;0.93;;
41201;SDS011;26936;50.524;8.684;2022-09-09T14:06:21;3.05;;;0.60;;
41201;SDS011;26936;50.524;8.684;2022-09-09T14:08:47;3.80;;;0.77;;
41201;SDS011;26936;50.524;8.684;2022-09-09T14:11:15;3.88;;;1.55;;
41201;SDS011;26936;50.524;8.684;2022-09-09T14:13:40;4.32;;;0.90;;
41201;SDS011;26936;50.524;8.684;2022-09-09T14:16:06;3.77;;;0.57;;
41201;SDS011;26936;50.524;8.684;2022-09-09T14:18:31;1.50;;;0.55;;
41201;SDS011;26936;50.524;8.684;2022-09-09T14:20:56;1.60;;;0.50;;
41201;SDS011;26936;50.524;8.684;2022-09-09T14:23:23;3.83;;;0.70;;
41201;SDS011;26936;50.524;8.684;2022-09-09T14:25:49;2.35;;;0.43;;
41201;SDS011;26936;50.524;8.684;2022-09-09T14:28:14;2.25;;;0.60;;
41201;SDS011;26936;50.524;8.684;2022-09-09T14:30:40;2.83;;;0.70;;
41201;SDS011;26936;50.524;8.684;2022-09-09T14:33:07;2.30;;;0.43;;
41201;SDS011;26936;50.524;8.684;2022-09-09T14:35:34;2.42;;;0.50;;
41201;SDS011;26936;50.524;8.684;2022-09-09T14:38:01;1.80;;;0.70;;
41201;SDS011;26936;50.524;8.684;2022-09-09T14:40:27;3.67;;;0.77;;
41201;SDS011;26936;50.524;8.684;2022-09-09T14:42:53;2.63;;;0.70;;
41201;SDS011;26936;50.524;8.684;2022-09-09T14:45:18;2.80;;;0.40;;
41201;SDS011;26936;50.524;8.684;2022-09-09T14:47:44;3.78;;;0.90;;
41201;SDS011;26936;50.524;8.684;2022-09-09T14:50:09;2.95;;;0.65;;
41201;SDS011;26936;50.524;8.684;2022-09-09T14:52:37;2.33;;;0.35;;
41201;SDS011;26936;50.524;8.684;2022-09-09T14:55:02;4.75;;;0.90;;
41201;SDS011;26936;50.524;8.684;2022-09-09T14:57:28;1.80;;;0.50;;
41201;SDS011;26936;50.524;8.684;2022-09-09T14:59:53;1.33;;;0.50;;
41201;SDS011;26936;50.524;8.684;2022-09-09T15:02:18;2.83;;;0.40;;
41201;SDS011;26936;50.524;8.684;2022-09-09T15:04:44;4.70;;;0.70;;
41201;SDS011;26936;50.524;8.684;2022-09-09T15:07:09;2.92;;;0.68;;
41201;SDS011;26936;50.524;8.684;2022-09-09T15:09:35;2.38;;;0.50;;
41201;SDS011;26936;50.524;8.684;2022-09-09T15:12:02;4.82;;;1.25;;
41201;SDS011;26936;50.524;8.684;2022-09-09T15:14:27;1.30;;;0.40;;
41201;SDS011;26936;50.524;8.684;2022-09-09T15:16:53;2.77;;;0.50;;
41201;SDS011;26936;50.524;8.684;2022-09-09T15:19:18;2.73;;;0.60;;
41201;SDS011;26936;50.524;8.684;2022-09-09T15:21:43;2.42;;;0.60;;
41201;SDS011;26936;50.524;8.684;2022-09-09T15:24:08;1.30;;;0.40;;
41201;SDS011;26936;50.524;8.684;2022-09-09T15:26:34;1.30;;;0.43;;
41201;SDS011;26936;50.524;8.684;2022-09-09T15:28:59;2.63;;;0.65;;
41201;SDS011;26936;50.524;8.684;2022-09-09T15:31:26;3.50;;;0.50;;
41201;SDS011;26936;50.524;8.684;2022-09-09T15:34:03;2.90;;;0.50;;
41201;SDS011;26936;50.524;8.684;2022-09-09T15:36:31;5.15;;;1.10;;
41201;SDS011;26936;50.524;8.684;2022-09-09T15:38:57;2.95;;;0.85;;
41201;SDS011;26936;50.524;8.684;2022-09-09T15:41:23;2.28;;;0.35;;
41201;SDS011;26936;50.524;8.684;2022-09-09T15:43:49;0.68;;;0.30;;
41201;SDS011;26936;50.524;8.684;2022-09-09T15:48:41;3.17;;;0.63;;
41201;SDS011;26936;50.524;8.684;2022-09-09T15:51:09;3.53;;;0.90;;
41201;SDS011;26936;50.524;8.684;2022-09-09T15:53:34;2.05;;;0.47;;
41201;SDS011;26936;50.524;8.684;2022-09-09T15:56:00;2.17;;;0.40;;
41201;SDS011;26936;50.524;8.684;2022-09-09T15:58:25;2.22;;;0.45;;
41201;SDS011;26936;50.524;8.684;2022-09-09T16:00:50;1.80;;;0.38;;
41201;SDS011;26936;50.524;8.684;2022-09-09T16:03:16;2.50;;;0.32;;
41201;SDS011;26936;50.524;8.684;2022-09-09T16:05:41;3.63;;;0.50;;
41201;SDS011;26936;50.524;8.684;2022-09-09T16:08:07;3.13;;;0.67;;
41201;SDS011;26936;50.524;8.684;2022-09-09T16:10:32;2.37;;;0.50;;
41201;SDS011;26936;50.524;8.684;2022-09-09T16:12:57;3.78;;;0.60;;
41201;SDS011;26936;50.524;8.684;2022-09-09T16:15:23;3.00;;;0.55;;
41201;SDS011;26936;50.524;8.684;2022-09-09T16:17:49;0.70;;;0.60;;
41201;SDS011;26936;50.524;8.684;2022-09-09T16:20:14;3.27;;;0.70;;
41201;SDS011;26936;50.524;8.684;2022-09-09T16:22:39;3.03;;;0.60;;
41201;SDS011;26936;50.524;8.684;2022-09-09T16:25:05;2.72;;;0.43;;
41201;SDS011;26936;50.524;8.684;2022-09-09T16:27:31;3.17;;;0.75;;
41201;SDS011;26936;50.524;8.684;2022-09-09T16:29:56;2.25;;;0.73;;
41201;SDS011;26936;50.524;8.684;2022-09-09T16:32:22;5.13;;;0.40;;
41201;SDS011;26936;50.524;8.684;2022-09-09T16:34:47;2.03;;;0.50;;
41201;SDS011;26936;50.524;8.684;2022-09-09T16:37:12;1.95;;;0.60;;
41201;SDS011;26936;50.524;8.684;2022-09-09T16:39:37;4.25;;;0.80;;
41201;SDS011;26936;50.524;8.684;2022-09-09T16:42:03;2.40;;;0.70;;
41201;SDS011;26936;50.524;8.684;2022-09-09T16:44:29;2.38;;;0.60;;
41201;SDS011;26936;50.524;8.684;2022-09-09T16:46:55;0.95;;;0.40;;
41201;SDS011;26936;50.524;8.684;2022-09-09T16:49:21;3.83;;;0.95;;
41201;SDS011;26936;50.524;8.684;2022-09-09T16:51:47;4.05;;;0.95;;